sensor_id;sensor_type;location;lat;lon;timestamp;P1;durP1;ratioP1;P2;durP2;ratioP2
28653;SDS011;24320;56.980;24.336;2022-12-16T00:02:05;29.52;;;11.15;;
28653;SDS011;24320;56.980;24.336;2022-12-16T00:04:39;32.17;;;8.07;;
28653;SDS011;24320;56.980;24.336;2022-12-16T00:07:16;22.70;;;8.27;;
28653;SDS011;24320;56.980;24.336;2022-12-16T00:09:49;28.55;;;9.88;;
28653;SDS011;24320;56.980;24.336;2022-12-16T00:12:26;31.92;;;8.25;;
28653;SDS011;24320;56.980;24.336;2022-12-16T00:15:00;18.88;;;9.07;;
28653;SDS011;24320;56.980;24.336;2022-12-16T00:17:35;17.17;;;7.68;;
28653;SDS011;24320;56.980;24.336;2022-12-16T00:20:08;21.48;;;8.27;;
28653;SDS011;24320;56.980;24.336;2022-12-16T00:22:41;26.05;;;8.80;;
28653;SDS011;24320;56.980;24.336;2022-12-16T00:25:16;19.38;;;9.82;;
28653;SDS011;24320;56.980;24.336;2022-12-16T00:27:48;16.52;;;6.80;;
28653;SDS011;24320;56.980;24.336;2022-12-16T00:30:26;11.10;;;5.68;;
28653;SDS011;24320;56.980;24.336;2022-12-16T00:33:01;24.20;;;9.02;;
28653;SDS011;24320;56.980;24.336;2022-12-16T00:35:36;24.50;;;8.90;;
28653;SDS011;24320;56.980;24.336;2022-12-16T00:38:12;16.02;;;8.48;;
28653;SDS011;24320;56.980;24.336;2022-12-16T00:40:44;9.55;;;6.10;;
28653;SDS011;24320;56.980;24.336;2022-12-16T00:43:17;23.05;;;8.88;;
28653;SDS011;24320;56.980;24.336;2022-12-16T00:45:51;16.38;;;7.63;;
28653;SDS011;24320;56.980;24.336;2022-12-16T00:48:24;24.88;;;9.70;;
28653;SDS011;24320;56.980;24.336;2022-12-16T00:50:56;37.78;;;9.45;;
28653;SDS011;24320;56.980;24.336;2022-12-16T00:53:27;19.52;;;8.20;;
28653;SDS011;24320;56.980;24.336;2022-12-16T00:56:02;17.27;;;7.88;;
28653;SDS011;24320;56.980;24.336;2022-12-16T00:58:33;29.02;;;9.95;;
28653;SDS011;24320;56.980;24.336;2022-12-16T01:01:06;25.45;;;9.27;;
28653;SDS011;24320;56.980;24.336;2022-12-16T01:03:38;16.38;;;6.47;;
28653;SDS011;24320;56.980;24.336;2022-12-16T01:06:14;17.05;;;8.18;;
28653;SDS011;24320;56.980;24.336;2022-12-16T01:08:45;17.92;;;6.47;;
28653;SDS011;24320;56.980;24.336;2022-12-16T01:11:22;33.70;;;8.57;;
28653;SDS011;24320;56.980;24.336;2022-12-16T01:13:56;20.05;;;8.23;;
28653;SDS011;24320;56.980;24.336;2022-12-16T01:16:29;26.90;;;9.95;;
28653;SDS011;24320;56.980;24.336;2022-12-16T01:19:04;25.02;;;8.60;;
28653;SDS011;24320;56.980;24.336;2022-12-16T01:21:37;21.50;;;7.80;;
28653;SDS011;24320;56.980;24.336;2022-12-16T01:24:10;20.27;;;9.38;;
28653;SDS011;24320;56.980;24.336;2022-12-16T01:26:42;35.55;;;9.93;;
28653;SDS011;24320;56.980;24.336;2022-12-16T01:29:16;26.67;;;10.55;;
28653;SDS011;24320;56.980;24.336;2022-12-16T01:31:46;21.70;;;8.57;;
28653;SDS011;24320;56.980;24.336;2022-12-16T01:34:21;17.13;;;7.63;;
28653;SDS011;24320;56.980;24.336;2022-12-16T01:36:50;11.40;;;6.97;;
28653;SDS011;24320;56.980;24.336;2022-12-16T01:39:23;18.88;;;9.25;;
28653;SDS011;24320;56.980;24.336;2022-12-16T01:41:56;28.00;;;10.05;;
28653;SDS011;24320;56.980;24.336;2022-12-16T01:44:26;23.17;;;8.38;;
28653;SDS011;24320;56.980;24.336;2022-12-16T01:47:01;19.55;;;8.10;;
28653;SDS011;24320;56.980;24.336;2022-12-16T01:49:37;26.05;;;9.30;;
28653;SDS011;24320;56.980;24.336;2022-12-16T01:52:18;23.05;;;9.02;;
28653;SDS011;24320;56.980;24.336;2022-12-16T01:54:57;33.30;;;10.55;;
28653;SDS011;24320;56.980;24.336;2022-12-16T01:57:43;14.77;;;6.47;;
28653;SDS011;24320;56.980;24.336;2022-12-16T02:00:25;29.90;;;10.40;;
28653;SDS011;24320;56.980;24.336;2022-12-16T02:02:56;27.48;;;10.98;;
28653;SDS011;24320;56.980;24.336;2022-12-16T02:27:50;19.85;;;8.48;;
28653;SDS011;24320;56.980;24.336;2022-12-16T02:31:28;17.92;;;8.00;;
28653;SDS011;24320;56.980;24.336;2022-12-16T02:34:29;29.45;;;10.32;;
28653;SDS011;24320;56.980;24.336;2022-12-16T02:39:55;31.25;;;10.00;;
28653;SDS011;24320;56.980;24.336;2022-12-16T02:42:50;32.03;;;7.07;;
28653;SDS011;24320;56.980;24.336;2022-12-16T02:45:27;26.27;;;7.68;;
28653;SDS011;24320;56.980;24.336;2022-12-16T02:48:02;21.85;;;8.45;;
28653;SDS011;24320;56.980;24.336;2022-12-16T02:50:35;24.55;;;8.85;;
28653;SDS011;24320;56.980;24.336;2022-12-16T02:53:11;25.30;;;9.18;;
28653;SDS011;24320;56.980;24.336;2022-12-16T02:55:58;32.83;;;10.00;;
28653;SDS011;24320;56.980;24.336;2022-12-16T02:58:42;14.65;;;9.27;;
28653;SDS011;24320;56.980;24.336;2022-12-16T03:06:44;26.33;;;7.18;;
28653;SDS011;24320;56.980;24.336;2022-12-16T03:09:20;24.92;;;8.73;;
28653;SDS011;24320;56.980;24.336;2022-12-16T03:11:57;14.60;;;5.05;;
28653;SDS011;24320;56.980;24.336;2022-12-16T03:14:32;18.70;;;6.05;;
28653;SDS011;24320;56.980;24.336;2022-12-16T03:17:06;13.05;;;7.00;;
28653;SDS011;24320;56.980;24.336;2022-12-16T03:19:39;18.23;;;5.35;;
28653;SDS011;24320;56.980;24.336;2022-12-16T03:22:18;21.90;;;8.80;;
28653;SDS011;24320;56.980;24.336;2022-12-16T03:24:53;30.70;;;8.90;;
28653;SDS011;24320;56.980;24.336;2022-12-16T03:30:06;29.05;;;7.47;;
28653;SDS011;24320;56.980;24.336;2022-12-16T03:32:45;22.15;;;7.68;;
28653;SDS011;24320;56.980;24.336;2022-12-16T03:38:13;22.30;;;9.45;;
28653;SDS011;24320;56.980;24.336;2022-12-16T03:40:46;11.30;;;7.13;;
28653;SDS011;24320;56.980;24.336;2022-12-16T03:43:21;16.75;;;4.30;;
28653;SDS011;24320;56.980;24.336;2022-12-16T03:45:55;7.22;;;3.33;;
28653;SDS011;24320;56.980;24.336;2022-12-16T03:48:31;10.68;;;4.68;;
28653;SDS011;24320;56.980;24.336;2022-12-16T03:51:03;13.48;;;5.88;;
28653;SDS011;24320;56.980;24.336;2022-12-16T03:53:37;14.45;;;6.85;;
28653;SDS011;24320;56.980;24.336;2022-12-16T03:56:11;28.48;;;8.50;;
28653;SDS011;24320;56.980;24.336;2022-12-16T03:58:46;12.57;;;4.47;;
28653;SDS011;24320;56.980;24.336;2022-12-16T04:01:16;22.83;;;8.13;;
28653;SDS011;24320;56.980;24.336;2022-12-16T04:03:48;18.17;;;4.60;;
28653;SDS011;24320;56.980;24.336;2022-12-16T04:06:19;10.88;;;6.18;;
28653;SDS011;24320;56.980;24.336;2022-12-16T04:08:55;25.45;;;10.20;;
28653;SDS011;24320;56.980;24.336;2022-12-16T04:11:29;12.75;;;6.35;;
28653;SDS011;24320;56.980;24.336;2022-12-16T04:14:18;12.65;;;5.60;;
28653;SDS011;24320;56.980;24.336;2022-12-16T04:17:07;19.50;;;7.00;;
28653;SDS011;24320;56.980;24.336;2022-12-16T04:20:00;20.05;;;8.50;;
28653;SDS011;24320;56.980;24.336;2022-12-16T04:22:51;14.27;;;6.25;;
28653;SDS011;24320;56.980;24.336;2022-12-16T04:25:39;7.78;;;4.05;;
28653;SDS011;24320;56.980;24.336;2022-12-16T04:28:16;14.32;;;6.30;;
28653;SDS011;24320;56.980;24.336;2022-12-16T04:30:47;13.65;;;6.07;;
28653;SDS011;24320;56.980;24.336;2022-12-16T04:33:18;16.83;;;6.45;;
28653;SDS011;24320;56.980;24.336;2022-12-16T04:36:09;13.50;;;6.07;;
28653;SDS011;24320;56.980;24.336;2022-12-16T04:39:02;18.98;;;7.13;;
28653;SDS011;24320;56.980;24.336;2022-12-16T04:41:55;11.15;;;4.95;;
28653;SDS011;24320;56.980;24.336;2022-12-16T04:47:33;7.95;;;5.07;;
28653;SDS011;24320;56.980;24.336;2022-12-16T04:50:26;13.20;;;6.35;;
28653;SDS011;24320;56.980;24.336;2022-12-16T04:53:15;11.32;;;5.70;;
28653;SDS011;24320;56.980;24.336;2022-12-16T04:56:03;11.93;;;6.13;;
28653;SDS011;24320;56.980;24.336;2022-12-16T04:58:55;10.60;;;5.57;;
28653;SDS011;24320;56.980;24.336;2022-12-16T05:01:44;20.30;;;5.82;;
28653;SDS011;24320;56.980;24.336;2022-12-16T05:04:34;14.40;;;6.68;;
28653;SDS011;24320;56.980;24.336;2022-12-16T05:07:25;14.95;;;5.90;;
28653;SDS011;24320;56.980;24.336;2022-12-16T05:10:15;10.95;;;4.95;;
28653;SDS011;24320;56.980;24.336;2022-12-16T05:13:04;11.88;;;5.10;;
28653;SDS011;24320;56.980;24.336;2022-12-16T05:15:53;13.32;;;6.10;;
28653;SDS011;24320;56.980;24.336;2022-12-16T05:21:32;5.85;;;2.80;;
28653;SDS011;24320;56.980;24.336;2022-12-16T05:24:22;8.30;;;3.90;;
28653;SDS011;24320;56.980;24.336;2022-12-16T05:27:18;16.13;;;6.55;;
28653;SDS011;24320;56.980;24.336;2022-12-16T05:30:10;14.93;;;5.93;;
28653;SDS011;24320;56.980;24.336;2022-12-16T05:33:02;11.13;;;5.18;;
28653;SDS011;24320;56.980;24.336;2022-12-16T05:35:51;11.27;;;5.82;;
28653;SDS011;24320;56.980;24.336;2022-12-16T05:38:41;9.93;;;4.90;;
28653;SDS011;24320;56.980;24.336;2022-12-16T05:41:30;17.45;;;6.60;;
28653;SDS011;24320;56.980;24.336;2022-12-16T05:44:22;15.50;;;6.22;;
28653;SDS011;24320;56.980;24.336;2022-12-16T05:47:11;10.95;;;4.80;;
28653;SDS011;24320;56.980;24.336;2022-12-16T05:50:01;25.52;;;7.53;;
28653;SDS011;24320;56.980;24.336;2022-12-16T05:52:51;17.77;;;6.35;;
28653;SDS011;24320;56.980;24.336;2022-12-16T05:55:43;13.32;;;6.00;;
28653;SDS011;24320;56.980;24.336;2022-12-16T05:58:33;26.25;;;8.23;;
28653;SDS011;24320;56.980;24.336;2022-12-16T06:01:24;15.52;;;5.55;;
28653;SDS011;24320;56.980;24.336;2022-12-16T06:04:14;11.05;;;5.60;;
28653;SDS011;24320;56.980;24.336;2022-12-16T06:07:04;27.88;;;9.05;;
28653;SDS011;24320;56.980;24.336;2022-12-16T06:09:54;19.10;;;5.65;;
28653;SDS011;24320;56.980;24.336;2022-12-16T06:12:55;19.85;;;7.45;;
28653;SDS011;24320;56.980;24.336;2022-12-16T06:15:45;29.92;;;7.93;;
28653;SDS011;24320;56.980;24.336;2022-12-16T06:18:35;19.90;;;7.00;;
28653;SDS011;24320;56.980;24.336;2022-12-16T06:21:25;22.13;;;6.20;;
28653;SDS011;24320;56.980;24.336;2022-12-16T06:24:17;15.18;;;5.95;;
28653;SDS011;24320;56.980;24.336;2022-12-16T06:27:07;16.23;;;5.85;;
28653;SDS011;24320;56.980;24.336;2022-12-16T06:29:56;26.35;;;7.15;;
28653;SDS011;24320;56.980;24.336;2022-12-16T06:32:46;18.02;;;6.25;;
28653;SDS011;24320;56.980;24.336;2022-12-16T06:35:33;9.43;;;4.45;;
28653;SDS011;24320;56.980;24.336;2022-12-16T06:38:23;17.48;;;7.38;;
28653;SDS011;24320;56.980;24.336;2022-12-16T06:41:12;29.20;;;8.45;;
28653;SDS011;24320;56.980;24.336;2022-12-16T06:44:04;20.10;;;6.68;;
28653;SDS011;24320;56.980;24.336;2022-12-16T06:46:53;18.67;;;6.50;;
28653;SDS011;24320;56.980;24.336;2022-12-16T06:49:51;18.58;;;6.80;;
28653;SDS011;24320;56.980;24.336;2022-12-16T06:52:42;11.75;;;4.35;;
28653;SDS011;24320;56.980;24.336;2022-12-16T06:55:34;13.30;;;6.43;;
28653;SDS011;24320;56.980;24.336;2022-12-16T06:58:23;21.88;;;7.45;;
28653;SDS011;24320;56.980;24.336;2022-12-16T07:01:14;15.95;;;6.72;;
28653;SDS011;24320;56.980;24.336;2022-12-16T07:04:04;19.13;;;6.80;;
28653;SDS011;24320;56.980;24.336;2022-12-16T07:06:56;25.95;;;9.40;;
28653;SDS011;24320;56.980;24.336;2022-12-16T07:09:50;19.55;;;8.60;;
28653;SDS011;24320;56.980;24.336;2022-12-16T07:12:41;22.60;;;8.30;;
28653;SDS011;24320;56.980;24.336;2022-12-16T07:15:29;17.92;;;7.55;;
28653;SDS011;24320;56.980;24.336;2022-12-16T07:18:28;20.48;;;7.93;;
28653;SDS011;24320;56.980;24.336;2022-12-16T07:21:24;18.65;;;7.88;;
28653;SDS011;24320;56.980;24.336;2022-12-16T07:24:20;17.50;;;7.50;;
28653;SDS011;24320;56.980;24.336;2022-12-16T07:27:09;29.35;;;8.25;;
28653;SDS011;24320;56.980;24.336;2022-12-16T07:30:01;26.25;;;8.88;;
28653;SDS011;24320;56.980;24.336;2022-12-16T07:32:50;29.35;;;8.70;;
28653;SDS011;24320;56.980;24.336;2022-12-16T07:35:41;22.45;;;7.03;;
28653;SDS011;24320;56.980;24.336;2022-12-16T07:38:33;21.10;;;8.20;;
28653;SDS011;24320;56.980;24.336;2022-12-16T07:41:25;18.30;;;7.25;;
28653;SDS011;24320;56.980;24.336;2022-12-16T07:44:13;21.05;;;8.00;;
28653;SDS011;24320;56.980;24.336;2022-12-16T07:47:02;22.23;;;6.95;;
28653;SDS011;24320;56.980;24.336;2022-12-16T07:50:03;20.98;;;7.82;;
28653;SDS011;24320;56.980;24.336;2022-12-16T07:52:55;19.65;;;6.07;;
28653;SDS011;24320;56.980;24.336;2022-12-16T07:55:45;26.17;;;8.57;;
28653;SDS011;24320;56.980;24.336;2022-12-16T07:58:34;21.75;;;8.05;;
28653;SDS011;24320;56.980;24.336;2022-12-16T08:01:22;17.63;;;6.85;;
28653;SDS011;24320;56.980;24.336;2022-12-16T08:04:12;23.83;;;8.63;;
28653;SDS011;24320;56.980;24.336;2022-12-16T08:09:53;15.52;;;6.45;;
28653;SDS011;24320;56.980;24.336;2022-12-16T08:12:42;11.57;;;5.63;;
28653;SDS011;24320;56.980;24.336;2022-12-16T08:15:30;28.75;;;9.55;;
28653;SDS011;24320;56.980;24.336;2022-12-16T08:18:22;15.18;;;6.82;;
28653;SDS011;24320;56.980;24.336;2022-12-16T08:21:12;21.30;;;7.32;;
28653;SDS011;24320;56.980;24.336;2022-12-16T08:24:05;24.55;;;7.78;;
28653;SDS011;24320;56.980;24.336;2022-12-16T08:26:54;10.18;;;4.95;;
28653;SDS011;24320;56.980;24.336;2022-12-16T08:29:43;27.15;;;8.55;;
28653;SDS011;24320;56.980;24.336;2022-12-16T08:32:32;22.45;;;7.85;;
28653;SDS011;24320;56.980;24.336;2022-12-16T08:35:29;22.77;;;8.88;;
28653;SDS011;24320;56.980;24.336;2022-12-16T08:38:16;25.42;;;7.95;;
28653;SDS011;24320;56.980;24.336;2022-12-16T08:41:05;28.05;;;10.15;;
28653;SDS011;24320;56.980;24.336;2022-12-16T08:43:54;23.23;;;7.22;;
28653;SDS011;24320;56.980;24.336;2022-12-16T08:46:43;19.35;;;7.38;;
28653;SDS011;24320;56.980;24.336;2022-12-16T08:49:31;20.58;;;6.90;;
28653;SDS011;24320;56.980;24.336;2022-12-16T08:52:28;22.10;;;9.13;;
28653;SDS011;24320;56.980;24.336;2022-12-16T08:55:16;16.67;;;8.68;;
28653;SDS011;24320;56.980;24.336;2022-12-16T08:58:05;31.40;;;10.73;;
28653;SDS011;24320;56.980;24.336;2022-12-16T09:00:55;19.30;;;8.45;;
28653;SDS011;24320;56.980;24.336;2022-12-16T09:03:47;29.40;;;10.20;;
28653;SDS011;24320;56.980;24.336;2022-12-16T09:09:16;18.00;;;8.23;;
28653;SDS011;24320;56.980;24.336;2022-12-16T09:12:07;24.52;;;8.75;;
28653;SDS011;24320;56.980;24.336;2022-12-16T09:14:55;19.50;;;8.20;;
28653;SDS011;24320;56.980;24.336;2022-12-16T09:17:52;25.15;;;7.70;;
28653;SDS011;24320;56.980;24.336;2022-12-16T09:20:46;27.42;;;8.23;;
28653;SDS011;24320;56.980;24.336;2022-12-16T09:26:26;28.83;;;8.57;;
28653;SDS011;24320;56.980;24.336;2022-12-16T09:29:17;24.02;;;8.85;;
28653;SDS011;24320;56.980;24.336;2022-12-16T09:32:10;19.20;;;8.15;;
28653;SDS011;24320;56.980;24.336;2022-12-16T09:35:01;28.85;;;9.90;;
28653;SDS011;24320;56.980;24.336;2022-12-16T09:37:50;26.10;;;8.35;;
28653;SDS011;24320;56.980;24.336;2022-12-16T09:40:47;25.70;;;8.88;;
28653;SDS011;24320;56.980;24.336;2022-12-16T09:49:47;22.95;;;9.13;;
28653;SDS011;24320;56.980;24.336;2022-12-16T09:52:49;23.20;;;7.63;;
28653;SDS011;24320;56.980;24.336;2022-12-16T09:55:46;26.92;;;10.20;;
28653;SDS011;24320;56.980;24.336;2022-12-16T09:58:57;23.85;;;8.00;;
28653;SDS011;24320;56.980;24.336;2022-12-16T10:01:47;27.73;;;10.18;;
28653;SDS011;24320;56.980;24.336;2022-12-16T10:04:38;16.02;;;7.03;;
28653;SDS011;24320;56.980;24.336;2022-12-16T10:07:28;21.48;;;6.45;;
28653;SDS011;24320;56.980;24.336;2022-12-16T10:16:40;23.52;;;8.98;;
28653;SDS011;24320;56.980;24.336;2022-12-16T10:20:02;16.20;;;6.50;;
28653;SDS011;24320;56.980;24.336;2022-12-16T10:29:27;23.40;;;8.00;;
28653;SDS011;24320;56.980;24.336;2022-12-16T10:32:37;18.30;;;7.90;;
28653;SDS011;24320;56.980;24.336;2022-12-16T10:35:50;21.85;;;8.98;;
28653;SDS011;24320;56.980;24.336;2022-12-16T10:38:52;15.25;;;6.70;;
28653;SDS011;24320;56.980;24.336;2022-12-16T10:41:48;26.98;;;10.02;;
28653;SDS011;24320;56.980;24.336;2022-12-16T10:48:07;24.88;;;9.82;;
28653;SDS011;24320;56.980;24.336;2022-12-16T10:51:04;24.30;;;7.22;;
28653;SDS011;24320;56.980;24.336;2022-12-16T10:54:14;22.13;;;8.50;;
28653;SDS011;24320;56.980;24.336;2022-12-16T11:00:20;16.67;;;5.63;;
28653;SDS011;24320;56.980;24.336;2022-12-16T11:03:30;31.27;;;9.45;;
28653;SDS011;24320;56.980;24.336;2022-12-16T11:06:26;29.10;;;9.43;;
28653;SDS011;24320;56.980;24.336;2022-12-16T11:09:46;20.85;;;8.50;;
28653;SDS011;24320;56.980;24.336;2022-12-16T11:12:36;24.55;;;8.90;;
28653;SDS011;24320;56.980;24.336;2022-12-16T11:15:30;24.70;;;8.68;;
28653;SDS011;24320;56.980;24.336;2022-12-16T11:18:22;24.30;;;10.13;;
28653;SDS011;24320;56.980;24.336;2022-12-16T11:21:18;20.17;;;8.00;;
28653;SDS011;24320;56.980;24.336;2022-12-16T11:24:16;27.73;;;9.27;;
28653;SDS011;24320;56.980;24.336;2022-12-16T11:30:28;30.50;;;8.70;;
28653;SDS011;24320;56.980;24.336;2022-12-16T11:33:24;23.80;;;9.73;;
28653;SDS011;24320;56.980;24.336;2022-12-16T11:36:17;20.00;;;7.47;;
28653;SDS011;24320;56.980;24.336;2022-12-16T11:39:14;28.48;;;9.57;;
28653;SDS011;24320;56.980;24.336;2022-12-16T11:42:30;20.75;;;8.63;;
28653;SDS011;24320;56.980;24.336;2022-12-16T11:45:21;20.20;;;8.73;;
28653;SDS011;24320;56.980;24.336;2022-12-16T11:48:55;20.08;;;8.85;;
28653;SDS011;24320;56.980;24.336;2022-12-16T11:51:35;27.80;;;8.95;;
28653;SDS011;24320;56.980;24.336;2022-12-16T11:54:59;28.92;;;8.95;;
28653;SDS011;24320;56.980;24.336;2022-12-16T12:01:26;29.67;;;9.02;;
28653;SDS011;24320;56.980;24.336;2022-12-16T12:04:26;22.52;;;8.25;;
28653;SDS011;24320;56.980;24.336;2022-12-16T12:07:24;26.08;;;8.68;;
28653;SDS011;24320;56.980;24.336;2022-12-16T12:10:29;20.33;;;7.32;;
28653;SDS011;24320;56.980;24.336;2022-12-16T12:26:27;21.48;;;9.35;;
28653;SDS011;24320;56.980;24.336;2022-12-16T12:33:41;25.30;;;8.50;;
28653;SDS011;24320;56.980;24.336;2022-12-16T12:36:07;29.40;;;8.85;;
28653;SDS011;24320;56.980;24.336;2022-12-16T12:42:13;16.45;;;7.45;;
28653;SDS011;24320;56.980;24.336;2022-12-16T12:48:39;21.65;;;8.63;;
28653;SDS011;24320;56.980;24.336;2022-12-16T12:51:34;20.67;;;6.65;;
28653;SDS011;24320;56.980;24.336;2022-12-16T12:57:27;16.98;;;7.15;;
28653;SDS011;24320;56.980;24.336;2022-12-16T13:00:20;26.98;;;9.13;;
28653;SDS011;24320;56.980;24.336;2022-12-16T13:03:17;18.67;;;7.40;;
28653;SDS011;24320;56.980;24.336;2022-12-16T13:06:19;14.88;;;6.18;;
28653;SDS011;24320;56.980;24.336;2022-12-16T13:12:33;26.50;;;8.88;;
28653;SDS011;24320;56.980;24.336;2022-12-16T13:15:43;20.73;;;7.63;;
28653;SDS011;24320;56.980;24.336;2022-12-16T13:18:33;14.33;;;6.23;;
28653;SDS011;24320;56.980;24.336;2022-12-16T13:27:47;19.20;;;7.47;;
28653;SDS011;24320;56.980;24.336;2022-12-16T13:30:47;22.27;;;7.82;;
28653;SDS011;24320;56.980;24.336;2022-12-16T13:33:52;25.27;;;8.20;;
28653;SDS011;24320;56.980;24.336;2022-12-16T13:36:43;23.67;;;9.23;;
28653;SDS011;24320;56.980;24.336;2022-12-16T13:39:39;27.40;;;9.00;;
28653;SDS011;24320;56.980;24.336;2022-12-16T13:45:34;23.15;;;8.43;;
28653;SDS011;24320;56.980;24.336;2022-12-16T13:48:25;26.95;;;9.05;;
28653;SDS011;24320;56.980;24.336;2022-12-16T13:51:58;24.58;;;9.38;;
28653;SDS011;24320;56.980;24.336;2022-12-16T13:54:38;19.45;;;8.38;;
28653;SDS011;24320;56.980;24.336;2022-12-16T13:57:48;14.15;;;5.55;;
28653;SDS011;24320;56.980;24.336;2022-12-16T14:03:43;30.27;;;9.32;;
28653;SDS011;24320;56.980;24.336;2022-12-16T14:06:36;27.55;;;9.05;;
28653;SDS011;24320;56.980;24.336;2022-12-16T14:09:31;24.15;;;7.15;;
28653;SDS011;24320;56.980;24.336;2022-12-16T14:19:03;18.15;;;7.50;;
28653;SDS011;24320;56.980;24.336;2022-12-16T14:22:44;23.73;;;8.88;;
28653;SDS011;24320;56.980;24.336;2022-12-16T14:25:20;17.75;;;8.40;;
28653;SDS011;24320;56.980;24.336;2022-12-16T14:34:51;23.67;;;9.85;;
28653;SDS011;24320;56.980;24.336;2022-12-16T14:37:36;29.48;;;9.85;;
28653;SDS011;24320;56.980;24.336;2022-12-16T14:40:30;36.45;;;9.77;;
28653;SDS011;24320;56.980;24.336;2022-12-16T14:43:24;32.95;;;11.02;;
28653;SDS011;24320;56.980;24.336;2022-12-16T14:46:34;24.65;;;8.65;;
28653;SDS011;24320;56.980;24.336;2022-12-16T14:49:24;32.83;;;11.10;;
28653;SDS011;24320;56.980;24.336;2022-12-16T14:52:17;31.52;;;10.85;;
28653;SDS011;24320;56.980;24.336;2022-12-16T14:58:21;35.75;;;12.52;;
28653;SDS011;24320;56.980;24.336;2022-12-16T15:04:12;29.65;;;11.63;;
28653;SDS011;24320;56.980;24.336;2022-12-16T15:07:07;31.25;;;11.38;;
28653;SDS011;24320;56.980;24.336;2022-12-16T15:09:58;30.40;;;10.55;;
28653;SDS011;24320;56.980;24.336;2022-12-16T15:12:46;53.33;;;16.25;;
28653;SDS011;24320;56.980;24.336;2022-12-16T15:15:36;24.42;;;9.20;;
28653;SDS011;24320;56.980;24.336;2022-12-16T15:18:33;57.88;;;20.45;;
28653;SDS011;24320;56.980;24.336;2022-12-16T15:21:28;40.22;;;11.95;;
28653;SDS011;24320;56.980;24.336;2022-12-16T15:24:19;38.90;;;13.82;;
28653;SDS011;24320;56.980;24.336;2022-12-16T15:33:24;48.67;;;19.52;;
28653;SDS011;24320;56.980;24.336;2022-12-16T15:36:33;45.05;;;13.40;;
28653;SDS011;24320;56.980;24.336;2022-12-16T15:39:32;36.22;;;11.02;;
28653;SDS011;24320;56.980;24.336;2022-12-16T15:42:28;44.65;;;13.55;;
28653;SDS011;24320;56.980;24.336;2022-12-16T15:48:12;48.72;;;14.05;;
28653;SDS011;24320;56.980;24.336;2022-12-16T15:51:30;32.85;;;13.80;;
28653;SDS011;24320;56.980;24.336;2022-12-16T15:54:25;35.92;;;13.15;;
28653;SDS011;24320;56.980;24.336;2022-12-16T15:57:27;31.35;;;12.48;;
28653;SDS011;24320;56.980;24.336;2022-12-16T16:03:20;41.50;;;16.02;;
28653;SDS011;24320;56.980;24.336;2022-12-16T16:09:10;32.73;;;11.40;;
28653;SDS011;24320;56.980;24.336;2022-12-16T16:12:04;27.70;;;11.13;;
28653;SDS011;24320;56.980;24.336;2022-12-16T16:14:52;36.70;;;12.70;;
28653;SDS011;24320;56.980;24.336;2022-12-16T16:17:39;30.70;;;12.13;;
28653;SDS011;24320;56.980;24.336;2022-12-16T16:20:25;37.42;;;12.60;;
28653;SDS011;24320;56.980;24.336;2022-12-16T16:23:11;34.47;;;12.10;;
28653;SDS011;24320;56.980;24.336;2022-12-16T16:25:57;32.03;;;11.48;;
28653;SDS011;24320;56.980;24.336;2022-12-16T16:28:43;29.73;;;10.00;;
28653;SDS011;24320;56.980;24.336;2022-12-16T16:31:28;24.35;;;9.40;;
28653;SDS011;24320;56.980;24.336;2022-12-16T16:34:14;37.63;;;11.75;;
28653;SDS011;24320;56.980;24.336;2022-12-16T16:36:59;36.30;;;11.20;;
28653;SDS011;24320;56.980;24.336;2022-12-16T16:39:45;36.15;;;12.68;;
28653;SDS011;24320;56.980;24.336;2022-12-16T16:42:30;32.72;;;11.68;;
28653;SDS011;24320;56.980;24.336;2022-12-16T16:45:16;43.33;;;12.07;;
28653;SDS011;24320;56.980;24.336;2022-12-16T16:48:13;33.47;;;12.82;;
28653;SDS011;24320;56.980;24.336;2022-12-16T16:51:01;38.20;;;12.77;;
28653;SDS011;24320;56.980;24.336;2022-12-16T16:53:47;36.75;;;13.15;;
28653;SDS011;24320;56.980;24.336;2022-12-16T16:56:33;31.23;;;11.93;;
28653;SDS011;24320;56.980;24.336;2022-12-16T16:59:22;35.75;;;11.65;;
28653;SDS011;24320;56.980;24.336;2022-12-16T17:02:29;34.40;;;13.68;;
28653;SDS011;24320;56.980;24.336;2022-12-16T17:05:14;39.97;;;12.10;;
28653;SDS011;24320;56.980;24.336;2022-12-16T17:08:00;35.20;;;11.55;;
28653;SDS011;24320;56.980;24.336;2022-12-16T17:10:45;33.13;;;9.80;;
28653;SDS011;24320;56.980;24.336;2022-12-16T17:13:31;29.75;;;10.27;;
28653;SDS011;24320;56.980;24.336;2022-12-16T17:16:16;35.33;;;12.75;;
28653;SDS011;24320;56.980;24.336;2022-12-16T17:21:30;42.58;;;13.38;;
28653;SDS011;24320;56.980;24.336;2022-12-16T17:24:15;42.65;;;13.95;;
28653;SDS011;24320;56.980;24.336;2022-12-16T17:27:18;28.83;;;11.68;;
28653;SDS011;24320;56.980;24.336;2022-12-16T17:30:18;40.15;;;12.45;;
28653;SDS011;24320;56.980;24.336;2022-12-16T17:33:12;40.97;;;12.52;;
28653;SDS011;24320;56.980;24.336;2022-12-16T17:35:59;42.30;;;13.80;;
28653;SDS011;24320;56.980;24.336;2022-12-16T17:38:45;40.67;;;12.43;;
28653;SDS011;24320;56.980;24.336;2022-12-16T17:41:31;47.90;;;14.13;;
28653;SDS011;24320;56.980;24.336;2022-12-16T17:44:17;39.13;;;12.75;;
28653;SDS011;24320;56.980;24.336;2022-12-16T17:47:03;41.15;;;13.50;;
28653;SDS011;24320;56.980;24.336;2022-12-16T17:49:49;48.42;;;14.00;;
28653;SDS011;24320;56.980;24.336;2022-12-16T17:52:35;46.58;;;13.50;;
28653;SDS011;24320;56.980;24.336;2022-12-16T17:55:21;27.85;;;12.68;;
28653;SDS011;24320;56.980;24.336;2022-12-16T17:58:07;41.75;;;12.57;;
28653;SDS011;24320;56.980;24.336;2022-12-16T18:00:59;35.25;;;12.68;;
28653;SDS011;24320;56.980;24.336;2022-12-16T18:03:46;34.83;;;12.40;;
28653;SDS011;24320;56.980;24.336;2022-12-16T18:06:33;43.33;;;13.70;;
28653;SDS011;24320;56.980;24.336;2022-12-16T18:09:19;46.22;;;15.07;;
28653;SDS011;24320;56.980;24.336;2022-12-16T18:12:04;36.22;;;11.93;;
28653;SDS011;24320;56.980;24.336;2022-12-16T18:14:50;33.55;;;11.93;;
28653;SDS011;24320;56.980;24.336;2022-12-16T18:17:36;42.95;;;12.98;;
28653;SDS011;24320;56.980;24.336;2022-12-16T18:20:21;42.17;;;12.70;;
28653;SDS011;24320;56.980;24.336;2022-12-16T18:23:07;40.28;;;12.50;;
28653;SDS011;24320;56.980;24.336;2022-12-16T18:25:56;38.92;;;12.60;;
28653;SDS011;24320;56.980;24.336;2022-12-16T18:28:46;45.67;;;13.02;;
28653;SDS011;24320;56.980;24.336;2022-12-16T18:31:34;45.25;;;13.10;;
28653;SDS011;24320;56.980;24.336;2022-12-16T18:34:19;40.75;;;13.63;;
28653;SDS011;24320;56.980;24.336;2022-12-16T18:37:07;43.42;;;12.02;;
28653;SDS011;24320;56.980;24.336;2022-12-16T18:39:55;43.53;;;12.90;;
28653;SDS011;24320;56.980;24.336;2022-12-16T18:42:41;45.35;;;12.48;;
28653;SDS011;24320;56.980;24.336;2022-12-16T18:45:27;41.63;;;13.05;;
28653;SDS011;24320;56.980;24.336;2022-12-16T18:48:13;43.92;;;12.70;;
28653;SDS011;24320;56.980;24.336;2022-12-16T18:50:58;39.40;;;13.75;;
28653;SDS011;24320;56.980;24.336;2022-12-16T18:53:44;35.13;;;12.35;;
28653;SDS011;24320;56.980;24.336;2022-12-16T18:56:30;36.90;;;12.68;;
28653;SDS011;24320;56.980;24.336;2022-12-16T18:59:15;39.72;;;14.50;;
28653;SDS011;24320;56.980;24.336;2022-12-16T19:02:08;43.20;;;13.10;;
28653;SDS011;24320;56.980;24.336;2022-12-16T19:04:54;43.88;;;12.80;;